Time;durP1;ratioP1;P1;durP2;ratioP2;P2;SDS_P1;SDS_P2;PMS_P1;PMS_P2;Temp;Humidity;BMP_temperature;BMP_pressure;BME280_temperature;BME280_humidity;BME280_pressure;Samples;Min_cycle;Max_cycle;Signal;HPM_P1;HPM_P2
2023/08/25 00:00:45;;;;;;;7.10;2.37;;;24.10;81.20;;;;;;5135711;27;20494;-74
2023/08/25 00:03:12;;;;;;;15.77;3.73;;;24.00;80.90;;;;;;5135221;27;20486;-74
2023/08/25 00:05:40;;;;;;;3.97;2.33;;;23.90;81.10;;;;;;5135960;27;20498;-74
2023/08/25 00:08:09;;;;;;;4.30;2.33;;;23.70;82.20;;;;;;5134991;27;20797;-74
2023/08/25 00:10:36;;;;;;;5.93;2.10;;;23.70;82.30;;;;;;5135443;27;20471;-75
2023/08/25 00:13:03;;;;;;;7.10;2.27;;;23.60;82.00;;;;;;5135513;27;20478;-74
2023/08/25 00:15:30;;;;;;;6.73;2.47;;;23.50;81.80;;;;;;5135141;27;20438;-74
2023/08/25 00:17:57;;;;;;;5.83;2.50;;;23.10;83.60;;;;;;5134549;27;20518;-74
2023/08/25 00:20:24;;;;;;;9.63;2.33;;;22.90;84.80;;;;;;5135004;27;20461;-74
2023/08/25 00:22:51;;;;;;;6.10;2.30;;;22.90;85.80;;;;;;5134150;27;20967;-74
2023/08/25 00:25:19;;;;;;;5.23;2.10;;;22.90;86.20;;;;;;5134894;27;20437;-75
2023/08/25 00:27:46;;;;;;;6.23;2.40;;;22.90;86.60;;;;;;5134571;27;20434;-74
2023/08/25 00:30:13;;;;;;;6.80;2.40;;;22.90;86.90;;;;;;5134974;27;20822;-74
2023/08/25 00:32:40;;;;;;;5.03;2.63;;;22.90;87.00;;;;;;5134628;27;20856;-75
2023/08/25 00:35:08;;;;;;;7.80;2.70;;;22.80;86.60;;;;;;5134726;27;20486;-75
2023/08/25 00:37:35;;;;;;;9.27;3.10;;;22.80;86.60;;;;;;5134520;27;20430;-75
2023/08/25 00:40:03;;;;;;;9.53;2.30;;;22.80;84.60;;;;;;5134589;27;20916;-74
2023/08/25 00:42:31;;;;;;;6.80;2.10;;;22.70;84.10;;;;;;5134842;27;20553;-75
2023/08/25 00:44:58;;;;;;;7.00;1.80;;;22.70;82.30;;;;;;5134884;27;20430;-74
2023/08/25 00:47:29;;;;;;;6.27;2.47;;;22.80;82.50;;;;;;5134568;27;20437;-74
2023/08/25 00:49:56;;;;;;;5.97;1.77;;;22.80;82.20;;;;;;5134920;27;20491;-74
2023/08/25 00:52:24;;;;;;;3.10;1.70;;;22.80;81.50;;;;;;5134549;27;20841;-77
2023/08/25 00:54:54;;;;;;;6.50;2.40;;;22.80;81.20;;;;;;5134390;27;20425;-74
2023/08/25 00:57:21;;;;;;;7.23;2.20;;;22.90;80.50;;;;;;5133975;27;20908;-74
2023/08/25 00:59:51;;;;;;;6.63;2.30;;;22.90;79.70;;;;;;5134515;27;20428;-75
2023/08/25 01:02:19;;;;;;;7.83;3.63;;;22.80;79.40;;;;;;5113790;28;20431;-75
2023/08/25 01:04:46;;;;;;;3.77;2.00;;;22.70;79.60;;;;;;5113985;28;20522;-74
2023/08/25 01:07:13;;;;;;;5.20;2.30;;;22.80;78.40;;;;;;5113654;28;20913;-75
2023/08/25 01:09:40;;;;;;;6.10;2.00;;;22.80;78.50;;;;;;5114047;28;20484;-74
2023/08/25 01:12:10;;;;;;;5.40;1.73;;;22.90;77.90;;;;;;5132396;27;20517;-74
2023/08/25 01:14:51;;;;;;;3.30;1.60;;;22.80;77.30;;;;;;5134608;27;20471;-74
2023/08/25 01:17:27;;;;;;;5.90;2.10;;;22.90;76.70;;;;;;5134297;27;21030;-74
2023/08/25 01:19:58;;;;;;;4.80;1.80;;;23.00;75.80;;;;;;5133989;27;20414;-78
2023/08/25 01:22:33;;;;;;;4.73;1.77;;;23.00;73.60;;;;;;5113834;28;20427;-74
2023/08/25 01:25:20;;;;;;;3.07;1.60;;;23.10;73.80;;;;;;5113825;28;20936;-75
2023/08/25 01:27:48;;;;;;;2.97;1.53;;;23.10;74.60;;;;;;5113498;28;20954;-74
2023/08/25 01:30:15;;;;;;;4.70;1.70;;;23.20;75.10;;;;;;5115745;28;20913;-74
2023/08/25 01:32:43;;;;;;;3.70;1.30;;;23.20;75.60;;;;;;5133548;28;20433;-74
2023/08/25 01:35:14;;;;;;;4.70;2.00;;;23.10;74.90;;;;;;5137634;27;20442;-74
2023/08/25 01:37:48;;;;;;;5.20;1.70;;;23.10;74.50;;;;;;5138173;27;20418;-74
2023/08/25 01:40:22;;;;;;;6.47;1.70;;;23.10;76.10;;;;;;5138157;27;20477;-74
2023/08/25 01:42:53;;;;;;;4.03;1.50;;;22.90;76.30;;;;;;5137727;27;20489;-74
2023/08/25 01:45:22;;;;;;;5.00;1.27;;;22.90;77.20;;;;;;5138396;27;20418;-74
2023/08/25 01:47:51;;;;;;;6.93;1.30;;;22.70;77.20;;;;;;5138179;27;20438;-74
2023/08/25 01:50:21;;;;;;;5.10;1.60;;;22.50;78.30;;;;;;5138261;27;20426;-74
2023/08/25 01:52:49;;;;;;;2.90;1.10;;;22.50;79.60;;;;;;5137616;27;20469;-75
2023/08/25 01:55:17;;;;;;;3.27;1.27;;;22.40;79.20;;;;;;5138141;27;20438;-74
2023/08/25 01:57:44;;;;;;;2.57;1.53;;;22.30;80.00;;;;;;5138029;27;20425;-74
2023/08/25 02:00:13;;;;;;;2.87;1.50;;;22.30;80.90;;;;;;5137702;27;20430;-74
2023/08/25 02:02:39;;;;;;;2.50;1.23;;;22.20;80.20;;;;;;5137619;27;20434;-80
2023/08/25 02:05:07;;;;;;;4.27;1.70;;;22.20;79.80;;;;;;5120546;27;20896;-74
2023/08/25 02:07:34;;;;;;;4.30;1.60;;;22.20;80.20;;;;;;5137688;27;20964;-74
2023/08/25 02:10:01;;;;;;;11.87;1.70;;;22.20;79.00;;;;;;5137669;27;20433;-74
2023/08/25 02:12:29;;;;;;;4.60;1.47;;;22.30;78.20;;;;;;5137529;27;20451;-74
2023/08/25 02:14:56;;;;;;;7.77;2.00;;;22.40;78.30;;;;;;5136914;27;20438;-75
2023/08/25 02:17:23;;;;;;;4.20;1.70;;;22.50;77.50;;;;;;5137374;27;20533;-74
2023/08/25 02:19:50;;;;;;;3.33;1.70;;;22.60;77.00;;;;;;5137683;27;20761;-74
2023/08/25 02:22:17;;;;;;;5.50;1.67;;;22.70;77.30;;;;;;5137264;27;20839;-74
2023/08/25 02:24:44;;;;;;;3.23;1.60;;;22.80;77.50;;;;;;5137163;27;20578;-74
2023/08/25 02:27:11;;;;;;;4.63;2.20;;;22.90;77.10;;;;;;5137476;27;20491;-74
2023/08/25 02:29:39;;;;;;;4.90;1.63;;;22.90;76.50;;;;;;5137551;27;20434;-74
2023/08/25 02:32:07;;;;;;;4.73;1.60;;;22.80;76.70;;;;;;5135208;27;20430;-74
2023/08/25 02:34:34;;;;;;;5.43;1.70;;;22.90;77.20;;;;;;5136709;27;20450;-74
2023/08/25 02:37:01;;;;;;;4.87;1.57;;;22.90;77.30;;;;;;5137255;27;20433;-74
2023/08/25 02:39:28;;;;;;;3.50;1.70;;;23.00;77.10;;;;;;5136980;27;20466;-74
2023/08/25 02:41:55;;;;;;;4.60;1.50;;;22.90;77.20;;;;;;5136937;27;20482;-74
2023/08/25 02:44:22;;;;;;;4.63;1.93;;;22.90;77.70;;;;;;5137052;27;20523;-75
2023/08/25 02:46:50;;;;;;;3.30;1.70;;;22.90;77.70;;;;;;5135980;27;20434;-74
2023/08/25 02:49:17;;;;;;;4.67;1.57;;;22.90;78.10;;;;;;5136682;27;20494;-75
2023/08/25 02:51:44;;;;;;;3.30;1.60;;;22.80;77.70;;;;;;5136414;27;20486;-74
2023/08/25 02:54:11;;;;;;;4.80;2.10;;;22.80;78.30;;;;;;5136579;27;20433;-74
2023/08/25 02:56:38;;;;;;;2.80;1.10;;;22.80;79.00;;;;;;5136926;27;20430;-74
2023/08/25 02:59:04;;;;;;;3.77;1.23;;;22.90;79.00;;;;;;5136325;27;20434;-79
2023/08/25 03:01:33;;;;;;;3.53;1.27;;;22.90;78.90;;;;;;5128642;27;20434;-74
2023/08/25 03:04:01;;;;;;;2.77;1.33;;;23.00;75.20;;;;;;5136416;27;20548;-74
2023/08/25 03:06:28;;;;;;;2.80;1.10;;;23.00;75.20;;;;;;5136732;27;20422;-74
2023/08/25 03:08:55;;;;;;;2.70;1.30;;;23.00;75.00;;;;;;5136332;27;20429;-74
2023/08/25 03:11:22;;;;;;;3.20;1.50;;;22.90;74.60;;;;;;5136583;27;20588;-74
2023/08/25 03:13:49;;;;;;;5.40;1.80;;;22.90;75.20;;;;;;5136281;27;20446;-74
2023/08/25 03:16:16;;;;;;;5.83;1.83;;;22.90;75.40;;;;;;5135836;27;20442;-74
2023/08/25 03:18:43;;;;;;;4.17;1.43;;;22.90;75.60;;;;;;5136355;27;20437;-74
2023/08/25 03:21:11;;;;;;;5.30;1.40;;;22.90;76.10;;;;;;5136095;27;20966;-74
2023/08/25 03:23:38;;;;;;;5.00;2.20;;;22.80;76.60;;;;;;5135968;27;20465;-74
2023/08/25 03:26:05;;;;;;;5.50;2.60;;;22.70;77.50;;;;;;5136387;27;20438;-74
2023/08/25 03:28:32;;;;;;;4.97;2.20;;;22.70;76.70;;;;;;5135280;27;20426;-74
2023/08/25 03:30:59;;;;;;;3.47;1.67;;;22.60;75.20;;;;;;5136251;27;20438;-75
2023/08/25 03:33:26;;;;;;;3.97;1.40;;;22.70;75.00;;;;;;5135922;27;20919;-74
2023/08/25 03:35:53;;;;;;;2.60;1.30;;;22.70;74.10;;;;;;5136179;27;20430;-75
2023/08/25 03:38:21;;;;;;;3.53;1.20;;;22.70;73.80;;;;;;5135418;27;20482;-74
2023/08/25 03:40:48;;;;;;;2.53;1.00;;;22.80;73.20;;;;;;5135524;27;20433;-74
2023/08/25 03:43:15;;;;;;;3.83;1.37;;;22.80;73.20;;;;;;5136050;27;20441;-74
2023/08/25 03:45:42;;;;;;;2.60;1.10;;;22.80;72.40;;;;;;5136126;27;20491;-75
2023/08/25 03:48:09;;;;;;;3.70;1.30;;;22.80;73.30;;;;;;5135508;27;20461;-74
2023/08/25 03:50:37;;;;;;;2.70;1.40;;;22.80;73.70;;;;;;5135870;27;20441;-74
2023/08/25 03:53:04;;;;;;;4.60;1.77;;;22.80;74.30;;;;;;5135823;27;20482;-75
2023/08/25 03:55:32;;;;;;;9.47;1.63;;;22.90;74.00;;;;;;5135909;27;20537;-74
2023/08/25 03:57:59;;;;;;;7.10;1.40;;;22.80;74.10;;;;;;5133781;27;20464;-74
2023/08/25 04:00:26;;;;;;;3.43;1.57;;;22.80;74.90;;;;;;5135477;27;20996;-74
2023/08/25 04:02:53;;;;;;;3.77;1.57;;;22.80;74.80;;;;;;5135199;27;20920;-74
2023/08/25 04:05:20;;;;;;;3.03;1.43;;;22.80;75.20;;;;;;5135215;27;20474;-74
2023/08/25 04:07:48;;;;;;;3.43;2.00;;;22.90;71.60;;;;;;5135215;27;20426;-75
2023/08/25 04:10:15;;;;;;;3.20;2.10;;;23.00;70.50;;;;;;5135603;27;20487;-74
2023/08/25 04:12:44;;;;;;;3.67;1.70;;;23.10;70.40;;;;;;5135411;27;20438;-74
2023/08/25 04:15:14;;;;;;;4.80;1.87;;;23.20;70.60;;;;;;5135621;27;20888;-74
2023/08/25 04:17:41;;;;;;;6.57;2.57;;;23.20;72.00;;;;;;5135464;27;20529;-74
2023/08/25 04:20:10;;;;;;;3.43;2.10;;;23.20;72.40;;;;;;5134756;27;20506;-74
2023/08/25 04:22:37;;;;;;;4.17;2.60;;;23.10;73.30;;;;;;5134124;27;20517;-74
2023/08/25 04:25:04;;;;;;;3.70;2.03;;;23.10;75.00;;;;;;5134550;27;20535;-74
2023/08/25 04:27:31;;;;;;;4.90;2.70;;;23.00;75.30;;;;;;5135311;27;20433;-74
2023/08/25 04:30:00;;;;;;;4.40;2.37;;;22.90;76.10;;;;;;5134919;27;20510;-73
2023/08/25 04:32:27;;;;;;;3.63;1.97;;;22.90;76.60;;;;;;5134786;27;20449;-74
2023/08/25 04:34:54;;;;;;;5.27;1.73;;;22.70;77.30;;;;;;5134803;27;20528;-74
2023/08/25 04:37:21;;;;;;;3.97;2.37;;;22.70;78.20;;;;;;5135075;27;20494;-74
2023/08/25 04:39:47;;;;;;;5.70;2.23;;;22.60;80.40;;;;;;5134265;27;20434;-74
2023/08/25 04:42:14;;;;;;;3.00;2.00;;;22.40;81.10;;;;;;5134799;27;20433;-74
2023/08/25 04:44:41;;;;;;;7.50;1.97;;;22.30;83.30;;;;;;5134610;27;20526;-75
2023/08/25 04:47:10;;;;;;;4.47;1.80;;;22.10;83.20;;;;;;5134098;27;20438;-75
2023/08/25 04:49:37;;;;;;;3.50;1.53;;;22.00;83.50;;;;;;5134506;27;20470;-74
2023/08/25 04:52:04;;;;;;;5.50;2.00;;;21.90;85.30;;;;;;5134811;27;20426;-74
2023/08/25 04:54:31;;;;;;;3.03;1.90;;;22.00;85.00;;;;;;5130930;27;20438;-74
2023/08/25 04:56:58;;;;;;;3.73;1.97;;;21.90;85.30;;;;;;5132667;27;22066;-74
2023/08/25 04:59:25;;;;;;;3.17;1.70;;;21.80;86.20;;;;;;5132836;27;20442;-74
2023/08/25 05:01:52;;;;;;;4.83;1.93;;;21.70;85.50;;;;;;5132011;27;20900;-75
2023/08/25 05:04:21;;;;;;;3.27;1.93;;;21.60;85.50;;;;;;5132550;27;20473;-74
2023/08/25 05:06:48;;;;;;;3.73;1.67;;;21.70;85.20;;;;;;5131952;27;20442;-74
2023/08/25 05:09:14;;;;;;;4.50;2.00;;;21.70;85.80;;;;;;5132173;27;20448;-74
2023/08/25 05:11:41;;;;;;;3.33;1.77;;;21.70;86.00;;;;;;5131596;27;20924;-74
2023/08/25 05:14:08;;;;;;;4.70;1.80;;;21.70;84.70;;;;;;5132159;27;20495;-74
2023/08/25 05:16:35;;;;;;;4.13;2.20;;;21.80;83.50;;;;;;5131586;27;20477;-74
2023/08/25 05:19:03;;;;;;;3.07;1.70;;;21.80;83.00;;;;;;5132010;27;20866;-74
2023/08/25 05:21:32;;;;;;;4.33;1.80;;;21.90;83.50;;;;;;5131760;27;20939;-75
2023/08/25 05:24:17;;;;;;;2.90;1.80;;;22.00;81.30;;;;;;5132406;28;20466;-74
2023/08/25 05:26:47;;;;;;;3.77;1.70;;;22.10;80.30;;;;;;5127736;28;20521;-74
2023/08/25 05:29:14;;;;;;;3.20;2.13;;;22.10;80.60;;;;;;5132062;28;20442;-75
2023/08/25 05:31:42;;;;;;;4.83;1.83;;;22.10;80.80;;;;;;5131753;28;20457;-74
2023/08/25 05:34:10;;;;;;;2.97;1.80;;;22.20;80.50;;;;;;5130348;28;20802;-74
2023/08/25 05:36:38;;;;;;;3.40;1.43;;;22.30;79.70;;;;;;5131597;28;20520;-74
2023/08/25 05:39:06;;;;;;;3.03;1.73;;;22.30;78.50;;;;;;5131868;28;20517;-74
2023/08/25 05:41:33;;;;;;;5.97;2.77;;;22.30;78.60;;;;;;5132272;28;20544;-74
2023/08/25 05:44:00;;;;;;;4.40;1.70;;;22.40;77.70;;;;;;5130791;28;20477;-75
2023/08/25 05:46:30;;;;;;;3.60;1.37;;;22.50;77.10;;;;;;5132009;28;20434;-74
2023/08/25 05:48:57;;;;;;;4.33;1.77;;;22.60;76.00;;;;;;5131646;28;20480;-81
2023/08/25 05:51:24;;;;;;;4.20;1.40;;;22.60;75.40;;;;;;5131132;28;20434;-75
2023/08/25 05:53:53;;;;;;;5.70;2.20;;;22.70;75.50;;;;;;5127679;28;20433;-74
2023/08/25 05:56:20;;;;;;;2.80;1.70;;;22.80;75.10;;;;;;5132026;28;20491;-74
2023/08/25 05:58:47;;;;;;;4.20;1.53;;;22.80;74.70;;;;;;5132035;28;20438;-75
2023/08/25 06:01:14;;;;;;;3.30;1.77;;;22.90;74.70;;;;;;5131343;28;21000;-76
2023/08/25 06:03:42;;;;;;;4.13;1.83;;;22.90;74.90;;;;;;5132021;28;20479;-74
2023/08/25 06:06:09;;;;;;;5.33;1.90;;;23.00;75.10;;;;;;5130591;28;21048;-74
2023/08/25 06:08:36;;;;;;;2.70;1.60;;;23.10;75.80;;;;;;5132158;28;20490;-75
2023/08/25 06:11:05;;;;;;;3.20;1.90;;;23.30;76.10;;;;;;5131637;28;20438;-75
2023/08/25 06:13:32;;;;;;;3.00;1.60;;;23.40;75.80;;;;;;5131676;28;20482;-74
2023/08/25 06:15:59;;;;;;;3.67;2.23;;;23.40;75.30;;;;;;5131479;28;20519;-75
2023/08/25 06:18:26;;;;;;;4.50;2.27;;;23.50;74.40;;;;;;5127493;27;20514;-74
2023/08/25 06:20:53;;;;;;;4.73;1.80;;;23.50;75.00;;;;;;5131191;27;20430;-75
2023/08/25 06:23:20;;;;;;;4.40;2.43;;;23.50;75.50;;;;;;5135030;27;20914;-74
2023/08/25 06:25:47;;;;;;;3.70;1.40;;;23.50;77.20;;;;;;5134851;27;20527;-74
2023/08/25 06:28:15;;;;;;;6.47;1.90;;;23.50;77.90;;;;;;5135000;27;20494;-74
2023/08/25 06:30:42;;;;;;;3.17;1.57;;;23.60;79.60;;;;;;5134332;27;20465;-75
2023/08/25 06:33:11;;;;;;;3.00;1.60;;;23.60;80.00;;;;;;5129824;27;20442;-75
2023/08/25 06:35:39;;;;;;;2.90;1.60;;;23.60;79.90;;;;;;5133089;27;20470;-77
2023/08/25 06:38:06;;;;;;;3.10;1.67;;;23.60;80.60;;;;;;5135626;27;20441;-74
2023/08/25 06:40:35;;;;;;;3.40;2.10;;;23.60;81.10;;;;;;5136088;27;20479;-76
2023/08/25 06:43:02;;;;;;;3.57;2.03;;;23.60;79.60;;;;;;5134817;27;20506;-74
2023/08/25 06:45:31;;;;;;;3.23;1.30;;;23.70;79.00;;;;;;5136424;27;20469;-74
2023/08/25 06:47:59;;;;;;;3.07;1.80;;;23.70;77.80;;;;;;5136102;27;20491;-76
2023/08/25 06:50:26;;;;;;;3.87;2.13;;;23.80;75.90;;;;;;5136571;27;20476;-74
2023/08/25 06:52:53;;;;;;;4.87;1.80;;;23.90;75.20;;;;;;5136796;27;20426;-75
2023/08/25 06:55:20;;;;;;;3.90;2.20;;;24.00;75.20;;;;;;5136795;27;20438;-75
2023/08/25 06:57:47;;;;;;;4.00;2.00;;;24.00;75.50;;;;;;5136796;27;20478;-74
2023/08/25 07:00:16;;;;;;;4.67;1.53;;;24.00;75.20;;;;;;5136674;27;20434;-74
2023/08/25 07:02:45;;;;;;;6.00;2.00;;;24.10;74.50;;;;;;5136617;27;20506;-75
2023/08/25 07:05:13;;;;;;;6.27;2.53;;;24.20;74.70;;;;;;5136571;27;20469;-74
2023/08/25 07:07:42;;;;;;;3.03;2.23;;;24.30;77.00;;;;;;5136535;27;20457;-75
2023/08/25 07:10:13;;;;;;;3.80;2.10;;;24.40;78.40;;;;;;5136567;27;20475;-75
2023/08/25 07:12:40;;;;;;;4.70;2.50;;;24.50;77.90;;;;;;5136693;27;20449;-74
2023/08/25 07:15:08;;;;;;;6.63;2.57;;;24.60;77.60;;;;;;5136180;27;20503;-75
2023/08/25 07:17:35;;;;;;;3.37;1.97;;;24.70;75.80;;;;;;5136116;27;20457;-74
2023/08/25 07:20:05;;;;;;;5.37;2.20;;;24.80;71.80;;;;;;5136305;27;20830;-74
2023/08/25 07:22:32;;;;;;;4.77;2.40;;;24.80;69.00;;;;;;5135973;27;20912;-75
2023/08/25 07:24:59;;;;;;;7.10;4.03;;;24.70;69.00;;;;;;5135892;27;20473;-75
2023/08/25 07:27:26;;;;;;;5.40;3.27;;;24.70;70.80;;;;;;5135962;27;20434;-74
2023/08/25 07:29:53;;;;;;;4.90;1.80;;;24.70;72.40;;;;;;5136225;27;20429;-74
2023/08/25 07:32:21;;;;;;;3.63;1.90;;;24.60;73.70;;;;;;5135513;27;20455;-74
2023/08/25 07:34:48;;;;;;;3.57;2.10;;;24.60;73.90;;;;;;5136182;27;20527;-74
2023/08/25 07:37:16;;;;;;;3.70;2.20;;;24.60;69.90;;;;;;5136026;27;20483;-74
2023/08/25 07:39:43;;;;;;;3.90;2.60;;;24.60;68.40;;;;;;5135444;27;20426;-74
2023/08/25 07:42:10;;;;;;;4.30;2.20;;;24.60;68.50;;;;;;5135227;27;20426;-75
2023/08/25 07:44:48;;;;;;;8.13;2.00;;;24.60;67.40;;;;;;5135158;27;20584;-75
2023/08/25 07:47:15;;;;;;;4.50;2.23;;;24.60;67.80;;;;;;5135355;27;20414;-74
2023/08/25 07:49:43;;;;;;;3.17;1.87;;;24.60;67.70;;;;;;5135716;27;20441;-74
2023/08/25 07:52:10;;;;;;;3.80;1.97;;;24.60;67.70;;;;;;5133518;27;20433;-75
2023/08/25 07:54:39;;;;;;;6.03;2.60;;;24.60;68.40;;;;;;5134792;27;20971;-74
2023/08/25 07:57:06;;;;;;;8.40;2.73;;;24.60;69.20;;;;;;5135142;27;20516;-74
2023/08/25 07:59:33;;;;;;;4.47;3.07;;;24.60;69.30;;;;;;5135303;27;20425;-74
2023/08/25 08:02:00;;;;;;;5.83;2.70;;;24.70;69.50;;;;;;5135430;27;20512;-74
2023/08/25 08:04:30;;;;;;;3.20;1.90;;;24.70;70.60;;;;;;5135473;27;20510;-75
2023/08/25 08:06:57;;;;;;;5.70;2.40;;;24.90;70.90;;;;;;5135489;27;20457;-74
2023/08/25 08:09:25;;;;;;;5.10;2.37;;;25.00;70.30;;;;;;5134955;27;20920;-74
2023/08/25 08:11:54;;;;;;;6.03;2.30;;;25.30;67.50;;;;;;5135307;27;20421;-75
2023/08/25 08:14:21;;;;;;;4.10;2.40;;;25.60;67.40;;;;;;5134988;27;20430;-74
2023/08/25 08:16:53;;;;;;;4.23;2.73;;;26.20;65.80;;;;;;5134864;27;20521;-74
2023/08/25 08:19:24;;;;;;;3.17;2.20;;;27.10;64.30;;;;;;5135420;27;20426;-75
2023/08/25 08:21:52;;;;;;;3.77;2.40;;;27.50;60.80;;;;;;5135050;27;20503;-74
2023/08/25 08:24:24;;;;;;;6.20;2.47;;;27.50;60.30;;;;;;5134985;27;20825;-75
2023/08/25 08:26:51;;;;;;;4.77;2.50;;;27.40;60.40;;;;;;5134583;27;20501;-74
2023/08/25 08:29:20;;;;;;;3.50;1.93;;;27.40;60.40;;;;;;5134656;27;20437;-74
2023/08/25 08:31:47;;;;;;;4.70;2.20;;;27.30;59.70;;;;;;5135044;27;20811;-75
2023/08/25 08:34:14;;;;;;;3.27;2.40;;;27.50;59.80;;;;;;5134950;27;20438;-74
2023/08/25 08:36:41;;;;;;;5.63;2.40;;;28.20;57.60;;;;;;5134774;27;20446;-75
2023/08/25 08:39:08;;;;;;;4.00;1.87;;;28.40;56.20;;;;;;5134437;27;20471;-74
2023/08/25 08:41:36;;;;;;;4.43;2.70;;;28.30;57.00;;;;;;5134653;27;20498;-75
2023/08/25 08:44:06;;;;;;;4.33;1.93;;;28.30;57.00;;;;;;5134110;27;20429;-75
2023/08/25 08:46:38;;;;;;;4.13;2.13;;;28.30;57.80;;;;;;5134503;27;20534;-75
2023/08/25 08:49:05;;;;;;;4.87;2.20;;;28.40;58.00;;;;;;5134390;27;20478;-74
2023/08/25 08:51:34;;;;;;;3.93;2.50;;;28.60;58.60;;;;;;5134508;27;20765;-76
2023/08/25 08:54:06;;;;;;;3.60;2.53;;;28.50;58.40;;;;;;5135010;27;20425;-74
2023/08/25 08:56:34;;;;;;;4.83;2.40;;;28.50;59.20;;;;;;5134211;27;20424;-74
2023/08/25 08:59:06;;;;;;;4.60;2.10;;;28.40;61.00;;;;;;5134130;27;20522;-75
2023/08/25 09:01:34;;;;;;;5.83;2.67;;;28.20;63.10;;;;;;5134456;27;20501;-74
2023/08/25 09:04:05;;;;;;;5.70;2.93;;;28.00;62.30;;;;;;5134105;27;20906;-74
2023/08/25 09:06:37;;;;;;;7.30;2.40;;;27.70;62.90;;;;;;5134379;27;20461;-74
2023/08/25 09:09:08;;;;;;;10.13;2.03;;;27.40;61.60;;;;;;5134029;27;20425;-75
2023/08/25 09:11:36;;;;;;;4.87;2.37;;;27.20;61.80;;;;;;5134331;27;20414;-75
2023/08/25 09:14:22;;;;;;;5.77;2.50;;;26.90;63.00;;;;;;5133848;27;20434;-75
2023/08/25 09:16:59;;;;;;;4.80;2.60;;;26.90;63.80;;;;;;5134072;27;20453;-74
2023/08/25 09:19:34;;;;;;;3.80;2.47;;;26.80;63.90;;;;;;5133817;27;20433;-74
2023/08/25 09:22:05;;;;;;;5.20;2.60;;;26.80;65.50;;;;;;5134187;27;20491;-74
2023/08/25 09:24:38;;;;;;;5.03;2.00;;;27.40;69.30;;;;;;5133509;27;20505;-75
2023/08/25 09:27:21;;;;;;;4.50;2.53;;;28.10;68.80;;;;;;5133724;28;20461;-75
2023/08/25 09:29:54;;;;;;;7.63;2.70;;;28.40;65.90;;;;;;5133612;28;20422;-74
2023/08/25 09:32:28;;;;;;;4.90;2.93;;;28.30;61.70;;;;;;5133733;28;20418;-74
2023/08/25 09:34:55;;;;;;;4.83;2.60;;;28.40;62.20;;;;;;5133396;28;20505;-75
2023/08/25 09:37:23;;;;;;;10.83;3.30;;;29.00;64.70;;;;;;5133534;28;20425;-74
2023/08/25 09:39:50;;;;;;;4.77;2.97;;;30.20;64.50;;;;;;5133798;28;20479;-74
2023/08/25 09:42:23;;;;;;;4.93;2.60;;;31.30;59.40;;;;;;5133209;28;20437;-75
2023/08/25 09:44:50;;;;;;;4.00;2.60;;;32.30;57.20;;;;;;5133354;28;20964;-74
2023/08/25 09:47:27;;;;;;;3.80;2.83;;;33.00;55.10;;;;;;5133389;28;20442;-74
2023/08/25 09:49:54;;;;;;;4.23;2.43;;;33.60;52.20;;;;;;5133767;28;20413;-75
2023/08/25 09:52:27;;;;;;;9.60;2.83;;;34.10;50.50;;;;;;5133699;28;20430;-75
2023/08/25 09:54:54;;;;;;;5.70;2.87;;;34.70;49.60;;;;;;5135703;27;20808;-75
2023/08/25 09:57:24;;;;;;;4.87;2.30;;;35.20;48.00;;;;;;5136822;27;20773;-74
2023/08/25 09:59:51;;;;;;;4.00;2.60;;;35.70;47.10;;;;;;5137598;27;20426;-75
2023/08/25 10:02:19;;;;;;;3.97;2.53;;;36.20;45.30;;;;;;5136965;27;20835;-75
2023/08/25 10:04:48;;;;;;;4.43;3.00;;;36.40;43.10;;;;;;5137125;27;20421;-75
2023/08/25 10:07:15;;;;;;;7.23;3.20;;;36.50;42.00;;;;;;5137074;27;20506;-76
2023/08/25 10:09:45;;;;;;;7.00;3.33;;;36.70;41.40;;;;;;5136104;27;20439;-75
2023/08/25 10:12:13;;;;;;;8.40;3.37;;;36.90;40.90;;;;;;5137346;27;20432;-75
2023/08/25 10:14:44;;;;;;;6.60;3.17;;;37.10;41.00;;;;;;5137021;27;20464;-75
2023/08/25 10:17:14;;;;;;;5.93;3.20;;;37.30;40.60;;;;;;5136941;27;20561;-75
2023/08/25 10:19:45;;;;;;;7.17;2.97;;;37.30;39.80;;;;;;5137234;27;20834;-75
2023/08/25 10:22:14;;;;;;;4.23;2.60;;;37.50;40.60;;;;;;5137198;27;20491;-75
2023/08/25 10:24:49;;;;;;;5.47;3.00;;;37.40;39.00;;;;;;5136680;27;20500;-75
2023/08/25 10:27:19;;;;;;;9.23;3.10;;;37.40;40.20;;;;;;5137104;27;20861;-75
2023/08/25 10:29:46;;;;;;;4.27;3.00;;;37.50;38.40;;;;;;5136897;27;20440;-75
2023/08/25 10:32:13;;;;;;;5.63;3.27;;;37.50;38.20;;;;;;5137107;27;20833;-75
2023/08/25 10:34:50;;;;;;;6.00;3.20;;;37.50;38.60;;;;;;5136820;27;20433;-75
2023/08/25 10:37:29;;;;;;;4.00;2.80;;;37.30;38.60;;;;;;5136810;27;20500;-76
2023/08/25 10:39:59;;;;;;;5.50;2.67;;;37.30;38.10;;;;;;5136523;27;20818;-75
2023/08/25 10:42:38;;;;;;;7.13;3.30;;;37.40;38.40;;;;;;5135679;27;20433;-75
2023/08/25 10:45:08;;;;;;;4.63;2.70;;;37.30;36.50;;;;;;5136565;27;20429;-76
2023/08/25 10:47:45;;;;;;;4.30;2.93;;;37.30;37.70;;;;;;5136054;27;20443;-75
2023/08/25 10:50:12;;;;;;;5.73;3.63;;;37.20;37.10;;;;;;5136368;27;20421;-75
2023/08/25 10:52:45;;;;;;;4.10;2.90;;;37.10;37.70;;;;;;5136650;27;20437;-75
2023/08/25 10:55:26;;;;;;;4.77;2.80;;;37.00;37.20;;;;;;5135468;27;20806;-77
2023/08/25 10:58:03;;;;;;;5.40;2.90;;;36.90;37.80;;;;;;5136169;27;20433;-75
2023/08/25 11:00:33;;;;;;;4.93;3.10;;;36.80;36.60;;;;;;5136898;27;20427;-75
2023/08/25 11:03:01;;;;;;;9.30;3.10;;;36.80;38.20;;;;;;5136153;27;20473;-75
2023/08/25 11:05:45;;;;;;;6.90;3.57;;;36.70;38.10;;;;;;5136449;27;20518;-75
2023/08/25 11:08:27;;;;;;;4.90;3.00;;;36.60;38.80;;;;;;5126609;27;20918;-75
2023/08/25 11:11:12;;;;;;;5.43;2.80;;;36.50;38.00;;;;;;5122455;27;20428;-75
2023/08/25 11:13:40;;;;;;;5.40;3.50;;;36.40;39.40;;;;;;5136474;27;20479;-75
2023/08/25 11:16:09;;;;;;;6.10;3.10;;;36.30;38.60;;;;;;5135516;27;20955;-80
2023/08/25 11:18:37;;;;;;;5.10;3.50;;;36.20;38.40;;;;;;5132736;27;20798;-75
2023/08/25 11:21:07;;;;;;;5.87;3.53;;;36.20;38.90;;;;;;5135438;27;20848;-75
2023/08/25 11:23:40;;;;;;;5.60;3.40;;;36.10;39.00;;;;;;5135399;27;20426;-76
2023/08/25 11:26:09;;;;;;;6.47;3.40;;;36.10;39.40;;;;;;5135775;27;20478;-75
2023/08/25 11:28:36;;;;;;;5.77;3.83;;;36.10;40.10;;;;;;5136045;27;20502;-75
2023/08/25 11:31:06;;;;;;;7.00;3.20;;;36.10;39.00;;;;;;5135491;27;20838;-79
2023/08/25 11:33:35;;;;;;;7.03;3.67;;;36.20;38.60;;;;;;5134853;27;20434;-75
2023/08/25 11:36:04;;;;;;;4.47;3.20;;;36.20;39.90;;;;;;5135304;27;20438;-75
2023/08/25 11:38:35;;;;;;;5.07;3.30;;;36.20;38.80;;;;;;5131194;27;20794;-80
2023/08/25 11:41:04;;;;;;;7.47;3.80;;;36.30;38.30;;;;;;5131669;27;20882;-76
2023/08/25 11:43:33;;;;;;;5.00;3.50;;;36.40;39.00;;;;;;5134211;27;20439;-76
2023/08/25 11:46:01;;;;;;;4.40;2.97;;;36.30;38.20;;;;;;5133803;27;20489;-78
2023/08/25 11:48:34;;;;;;;5.00;3.03;;;36.40;38.90;;;;;;5133565;27;20475;-75
2023/08/25 11:51:01;;;;;;;6.33;3.57;;;36.40;39.30;;;;;;5133265;27;20849;-75
2023/08/25 11:53:28;;;;;;;6.70;3.50;;;36.40;39.60;;;;;;5134559;27;20554;-76
2023/08/25 11:56:04;;;;;;;5.10;3.50;;;36.40;38.40;;;;;;5133713;27;20432;-75
2023/08/25 11:58:32;;;;;;;7.23;4.07;;;36.30;37.50;;;;;;5134350;27;20426;-75
2023/08/25 12:01:10;;;;;;;4.90;3.30;;;36.00;37.40;;;;;;5134220;27;20788;-79
2023/08/25 12:03:38;;;;;;;5.00;4.07;;;35.80;37.30;;;;;;5135127;27;20460;-75
2023/08/25 12:06:11;;;;;;;7.40;3.80;;;35.40;36.70;;;;;;5135046;27;20577;-75
2023/08/25 12:08:40;;;;;;;5.87;3.77;;;35.30;38.90;;;;;;5135384;27;20904;-76
2023/08/25 12:11:10;;;;;;;7.10;4.37;;;35.50;39.10;;;;;;5135349;27;20434;-75
2023/08/25 12:13:42;;;;;;;6.90;4.20;;;35.80;38.80;;;;;;5135145;27;20912;-75
2023/08/25 12:16:12;;;;;;;6.47;3.67;;;36.00;38.20;;;;;;5135280;27;20426;-75
2023/08/25 12:18:42;;;;;;;6.90;3.73;;;35.90;37.20;;;;;;5134162;27;20426;-76
2023/08/25 12:21:10;;;;;;;7.33;3.90;;;35.80;37.10;;;;;;5135105;27;20517;-75
2023/08/25 12:23:38;;;;;;;5.53;4.10;;;35.70;37.70;;;;;;5135020;27;20430;-76
2023/08/25 12:26:13;;;;;;;5.10;3.40;;;35.90;37.00;;;;;;5134931;27;20474;-75
2023/08/25 12:28:40;;;;;;;5.83;3.07;;;36.00;36.90;;;;;;5134800;27;20502;-75
2023/08/25 12:31:12;;;;;;;6.57;3.40;;;36.10;35.60;;;;;;5135026;27;20434;-75
2023/08/25 12:33:39;;;;;;;7.13;4.37;;;36.10;35.10;;;;;;5135067;27;20424;-75
2023/08/25 12:36:06;;;;;;;6.47;3.00;;;36.30;35.80;;;;;;5134701;27;20438;-75
2023/08/25 12:38:36;;;;;;;7.43;3.43;;;36.10;36.10;;;;;;5134644;27;20430;-75
2023/08/25 12:41:04;;;;;;;5.30;3.43;;;36.10;35.20;;;;;;5134576;27;20912;-75
2023/08/25 12:43:34;;;;;;;5.97;3.80;;;35.80;35.60;;;;;;5134976;27;20528;-75
2023/08/25 12:46:06;;;;;;;4.90;2.93;;;35.50;36.50;;;;;;5134397;27;20927;-75
2023/08/25 12:48:34;;;;;;;8.80;3.63;;;35.30;36.40;;;;;;5134716;27;20490;-76
2023/08/25 12:51:04;;;;;;;4.20;3.33;;;35.10;36.70;;;;;;5134780;27;20470;-75
2023/08/25 12:53:36;;;;;;;5.90;4.00;;;34.90;37.30;;;;;;5134314;27;20433;-75